首页
METAR-TAF:

METAR-TAF

机场 :

St. Catharines, 安大略省, 加拿大

纬度: 43-12N, 经度: 079-10W, 海拔: 98米

当前天气观测

该预报发布于42分钟前的00:00 UTC
风速6节,风向南转西南
温度 27°C
湿度 62%
气压 1016 hPa
能見度: 24.1公里
少量云层高于13000英尺
散云层高于23000英尺

METAR: CYSN 260000Z 20006KT 15SM FEW130 SCT230 27/19 A3000 RMK AC2CI2 SLP159 DENSITY ALT 1800FT

时间: 20:42 (00:42 UTC)

预报

该预报发布于3小时和30分钟前的21:12 UTC
预报有效从25日的 21点(UTC)到 26日的 01点(UTC)
风速10节,风向南转西南
能見度: 10公里
少量云层高于4000英尺
多云层高于20000英尺
短暂存在
从 25日的 21点(UTC)到 26日的 01点(UTC)
能見度: 10公里
多云层高于4000英尺, 积雨云.
附近有雷暴

TAF: CYSN 252112Z 2521/2601 21010KT P6SM FEW040 BKN200 TEMPO 2521/2601 P6SM VCTS BKN040CB RMK NXT FCST WILL BE ISSUED AT 261245Z

超过4000个机场的气象观测和天气预报(METAR&TAF报告)。

可查询的气象台以黄色和红色小点在地图上表示。

将鼠标移到小点上方,可查看气象台名称。

然后点击查看天气观测和预报。

如需切换地图:点击带黑十字的绿色按钮放大地图;点击带横线的绿色按钮缩小地图;或者点击绿色箭头查看邻近地区的地图。


METAR-TAF: